sensor_id;sensor_type;location;lat;lon;timestamp;temperature;humidity
54846;DHT22;53889;50.084;8.646;2023-05-16T00:00:50;11.90;99.90
54846;DHT22;53889;50.084;8.646;2023-05-16T00:03:17;12.70;99.90
54846;DHT22;53889;50.084;8.646;2023-05-16T00:05:44;12.50;99.90
54846;DHT22;53889;50.084;8.646;2023-05-16T00:08:11;12.70;99.90
54846;DHT22;53889;50.084;8.646;2023-05-16T00:10:38;12.30;99.90
54846;DHT22;53889;50.084;8.646;2023-05-16T00:13:05;12.20;99.90
54846;DHT22;53889;50.084;8.646;2023-05-16T00:15:32;12.20;99.90
54846;DHT22;53889;50.084;8.646;2023-05-16T00:18:00;12.10;99.90
54846;DHT22;53889;50.084;8.646;2023-05-16T00:20:28;12.30;99.90
54846;DHT22;53889;50.084;8.646;2023-05-16T00:22:56;12.50;99.90
54846;DHT22;53889;50.084;8.646;2023-05-16T00:25:25;12.70;99.90
54846;DHT22;53889;50.084;8.646;2023-05-16T00:27:52;13.80;99.90
54846;DHT22;53889;50.084;8.646;2023-05-16T00:30:19;15.60;99.90
54846;DHT22;53889;50.084;8.646;2023-05-16T00:32:47;13.10;99.90
54846;DHT22;53889;50.084;8.646;2023-05-16T00:35:15;12.90;99.90
54846;DHT22;53889;50.084;8.646;2023-05-16T00:37:41;13.10;99.90
54846;DHT22;53889;50.084;8.646;2023-05-16T00:40:09;13.20;99.90
54846;DHT22;53889;50.084;8.646;2023-05-16T00:42:36;13.40;99.90
54846;DHT22;53889;50.084;8.646;2023-05-16T00:45:04;13.30;99.90
54846;DHT22;53889;50.084;8.646;2023-05-16T00:47:31;13.20;99.90
54846;DHT22;53889;50.084;8.646;2023-05-16T00:49:58;13.10;99.90
54846;DHT22;53889;50.084;8.646;2023-05-16T00:52:26;13.00;99.90
54846;DHT22;53889;50.084;8.646;2023-05-16T00:54:53;13.00;99.90
54846;DHT22;53889;50.084;8.646;2023-05-16T00:57:20;12.90;99.90
54846;DHT22;53889;50.084;8.646;2023-05-16T00:59:47;13.00;99.90
54846;DHT22;53889;50.084;8.646;2023-05-16T01:02:14;12.90;99.90
54846;DHT22;53889;50.084;8.646;2023-05-16T01:04:42;12.50;99.90
54846;DHT22;53889;50.084;8.646;2023-05-16T01:07:09;12.50;99.90
54846;DHT22;53889;50.084;8.646;2023-05-16T01:09:37;12.50;99.90
54846;DHT22;53889;50.084;8.646;2023-05-16T01:12:10;12.50;99.90
54846;DHT22;53889;50.084;8.646;2023-05-16T01:14:41;12.70;99.90
54846;DHT22;53889;50.084;8.646;2023-05-16T01:17:16;12.70;99.90
54846;DHT22;53889;50.084;8.646;2023-05-16T01:19:52;12.80;99.90
54846;DHT22;53889;50.084;8.646;2023-05-16T01:22:26;13.00;99.90
54846;DHT22;53889;50.084;8.646;2023-05-16T01:25:04;12.90;99.90
54846;DHT22;53889;50.084;8.646;2023-05-16T01:27:33;13.10;99.90
54846;DHT22;53889;50.084;8.646;2023-05-16T01:30:12;13.10;99.90
54846;DHT22;53889;50.084;8.646;2023-05-16T01:32:39;13.10;99.90
54846;DHT22;53889;50.084;8.646;2023-05-16T01:35:09;13.00;99.90
54846;DHT22;53889;50.084;8.646;2023-05-16T01:37:41;12.70;99.90
54846;DHT22;53889;50.084;8.646;2023-05-16T01:40:13;12.60;99.90
54846;DHT22;53889;50.084;8.646;2023-05-16T01:42:44;12.70;99.90
54846;DHT22;53889;50.084;8.646;2023-05-16T01:45:17;12.80;99.90
54846;DHT22;53889;50.084;8.646;2023-05-16T01:47:50;12.80;99.90
54846;DHT22;53889;50.084;8.646;2023-05-16T01:50:20;12.60;99.90
54846;DHT22;53889;50.084;8.646;2023-05-16T01:52:51;12.40;99.90
54846;DHT22;53889;50.084;8.646;2023-05-16T01:55:27;12.40;99.90
54846;DHT22;53889;50.084;8.646;2023-05-16T01:57:58;12.50;99.90
54846;DHT22;53889;50.084;8.646;2023-05-16T02:00:28;12.60;99.90
54846;DHT22;53889;50.084;8.646;2023-05-16T02:02:58;12.70;99.90
54846;DHT22;53889;50.084;8.646;2023-05-16T02:05:25;14.60;99.90
54846;DHT22;53889;50.084;8.646;2023-05-16T02:07:52;12.70;99.90
54846;DHT22;53889;50.084;8.646;2023-05-16T02:10:19;15.40;99.90
54846;DHT22;53889;50.084;8.646;2023-05-16T02:12:45;12.30;99.90
54846;DHT22;53889;50.084;8.646;2023-05-16T02:15:13;12.40;99.90
54846;DHT22;53889;50.084;8.646;2023-05-16T02:17:40;12.20;99.90
54846;DHT22;53889;50.084;8.646;2023-05-16T02:20:08;11.90;99.90
54846;DHT22;53889;50.084;8.646;2023-05-16T02:22:35;11.70;99.90
54846;DHT22;53889;50.084;8.646;2023-05-16T02:25:04;11.70;99.90
54846;DHT22;53889;50.084;8.646;2023-05-16T02:27:31;11.40;99.90
54846;DHT22;53889;50.084;8.646;2023-05-16T02:29:58;11.20;99.90
54846;DHT22;53889;50.084;8.646;2023-05-16T02:32:26;11.10;99.90
54846;DHT22;53889;50.084;8.646;2023-05-16T02:34:53;11.30;99.90
54846;DHT22;53889;50.084;8.646;2023-05-16T02:37:20;11.30;99.90
54846;DHT22;53889;50.084;8.646;2023-05-16T02:39:48;11.40;99.90
54846;DHT22;53889;50.084;8.646;2023-05-16T02:42:15;11.30;99.90
54846;DHT22;53889;50.084;8.646;2023-05-16T02:44:41;11.10;99.90
54846;DHT22;53889;50.084;8.646;2023-05-16T02:47:08;11.10;99.90
54846;DHT22;53889;50.084;8.646;2023-05-16T02:49:36;11.30;99.90
54846;DHT22;53889;50.084;8.646;2023-05-16T02:52:04;10.80;99.90
54846;DHT22;53889;50.084;8.646;2023-05-16T02:54:32;11.00;99.90
54846;DHT22;53889;50.084;8.646;2023-05-16T02:56:58;12.40;99.90
54846;DHT22;53889;50.084;8.646;2023-05-16T02:59:25;11.00;99.90
54846;DHT22;53889;50.084;8.646;2023-05-16T03:01:52;11.10;99.90
54846;DHT22;53889;50.084;8.646;2023-05-16T03:04:19;11.10;99.90
54846;DHT22;53889;50.084;8.646;2023-05-16T03:06:47;11.00;99.90
54846;DHT22;53889;50.084;8.646;2023-05-16T03:09:13;11.00;99.90
54846;DHT22;53889;50.084;8.646;2023-05-16T03:11:42;10.80;99.90
54846;DHT22;53889;50.084;8.646;2023-05-16T03:14:08;10.90;99.90
54846;DHT22;53889;50.084;8.646;2023-05-16T03:16:35;11.00;99.90
54846;DHT22;53889;50.084;8.646;2023-05-16T03:19:03;11.10;99.90
54846;DHT22;53889;50.084;8.646;2023-05-16T03:21:29;11.10;99.90
54846;DHT22;53889;50.084;8.646;2023-05-16T03:23:58;11.10;99.90
54846;DHT22;53889;50.084;8.646;2023-05-16T03:26:25;11.10;99.90
54846;DHT22;53889;50.084;8.646;2023-05-16T03:28:52;11.20;99.90
54846;DHT22;53889;50.084;8.646;2023-05-16T03:31:18;11.30;99.90
54846;DHT22;53889;50.084;8.646;2023-05-16T03:33:45;11.10;99.90
54846;DHT22;53889;50.084;8.646;2023-05-16T03:36:12;11.00;99.90
54846;DHT22;53889;50.084;8.646;2023-05-16T03:38:39;10.80;99.90
54846;DHT22;53889;50.084;8.646;2023-05-16T03:41:07;10.80;99.90
54846;DHT22;53889;50.084;8.646;2023-05-16T03:43:34;10.80;99.90
54846;DHT22;53889;50.084;8.646;2023-05-16T03:46:01;10.70;99.90
54846;DHT22;53889;50.084;8.646;2023-05-16T03:48:28;11.90;99.90
54846;DHT22;53889;50.084;8.646;2023-05-16T03:50:54;10.60;99.90
54846;DHT22;53889;50.084;8.646;2023-05-16T03:53:21;10.60;99.90
54846;DHT22;53889;50.084;8.646;2023-05-16T03:55:48;10.80;99.90
54846;DHT22;53889;50.084;8.646;2023-05-16T03:58:16;11.60;99.90
54846;DHT22;53889;50.084;8.646;2023-05-16T04:00:43;10.70;99.90
54846;DHT22;53889;50.084;8.646;2023-05-16T04:03:11;12.60;99.90
54846;DHT22;53889;50.084;8.646;2023-05-16T04:05:37;11.00;99.90
54846;DHT22;53889;50.084;8.646;2023-05-16T04:08:04;11.10;99.90
54846;DHT22;53889;50.084;8.646;2023-05-16T04:10:31;11.20;99.90
54846;DHT22;53889;50.084;8.646;2023-05-16T04:12:58;11.20;99.90
54846;DHT22;53889;50.084;8.646;2023-05-16T04:15:26;11.40;99.90
54846;DHT22;53889;50.084;8.646;2023-05-16T04:17:52;11.60;99.90
54846;DHT22;53889;50.084;8.646;2023-05-16T04:20:19;11.60;99.90
54846;DHT22;53889;50.084;8.646;2023-05-16T04:22:46;10.40;99.90
54846;DHT22;53889;50.084;8.646;2023-05-16T04:25:13;11.80;99.90
54846;DHT22;53889;50.084;8.646;2023-05-16T04:27:39;12.00;99.90
54846;DHT22;53889;50.084;8.646;2023-05-16T04:30:07;12.10;99.90
54846;DHT22;53889;50.084;8.646;2023-05-16T04:32:37;12.40;99.90
54846;DHT22;53889;50.084;8.646;2023-05-16T04:35:04;12.50;99.90
54846;DHT22;53889;50.084;8.646;2023-05-16T04:37:31;12.60;99.90
54846;DHT22;53889;50.084;8.646;2023-05-16T04:39:58;12.60;99.90
54846;DHT22;53889;50.084;8.646;2023-05-16T04:42:25;12.70;99.90
54846;DHT22;53889;50.084;8.646;2023-05-16T04:44:52;12.80;99.90
54846;DHT22;53889;50.084;8.646;2023-05-16T04:47:19;14.30;99.90
54846;DHT22;53889;50.084;8.646;2023-05-16T04:49:48;14.10;99.90
54846;DHT22;53889;50.084;8.646;2023-05-16T04:52:14;12.90;99.90
54846;DHT22;53889;50.084;8.646;2023-05-16T04:54:41;13.00;99.90
54846;DHT22;53889;50.084;8.646;2023-05-16T04:57:08;13.10;99.90
54846;DHT22;53889;50.084;8.646;2023-05-16T04:59:35;13.10;99.90
54846;DHT22;53889;50.084;8.646;2023-05-16T05:02:11;13.10;99.90
54846;DHT22;53889;50.084;8.646;2023-05-16T05:04:38;13.10;99.90
54846;DHT22;53889;50.084;8.646;2023-05-16T05:07:07;13.00;99.90
54846;DHT22;53889;50.084;8.646;2023-05-16T05:09:34;13.00;99.90
54846;DHT22;53889;50.084;8.646;2023-05-16T05:12:00;13.00;99.90
54846;DHT22;53889;50.084;8.646;2023-05-16T05:14:27;13.10;99.90
54846;DHT22;53889;50.084;8.646;2023-05-16T05:16:54;13.00;99.90
54846;DHT22;53889;50.084;8.646;2023-05-16T05:19:21;15.80;99.90
54846;DHT22;53889;50.084;8.646;2023-05-16T05:21:47;13.10;99.90
54846;DHT22;53889;50.084;8.646;2023-05-16T05:24:15;13.10;99.90
54846;DHT22;53889;50.084;8.646;2023-05-16T05:26:42;13.00;99.90
54846;DHT22;53889;50.084;8.646;2023-05-16T05:29:09;13.00;99.90
54846;DHT22;53889;50.084;8.646;2023-05-16T05:31:36;13.10;99.90
54846;DHT22;53889;50.084;8.646;2023-05-16T05:34:03;16.40;99.90
54846;DHT22;53889;50.084;8.646;2023-05-16T05:36:29;13.30;99.90
54846;DHT22;53889;50.084;8.646;2023-05-16T05:38:56;13.40;99.90
54846;DHT22;53889;50.084;8.646;2023-05-16T05:41:24;13.40;99.90
54846;DHT22;53889;50.084;8.646;2023-05-16T05:43:51;13.40;99.90
54846;DHT22;53889;50.084;8.646;2023-05-16T05:46:18;13.40;99.90
54846;DHT22;53889;50.084;8.646;2023-05-16T05:48:45;13.50;99.90
54846;DHT22;53889;50.084;8.646;2023-05-16T05:51:12;13.50;99.90
54846;DHT22;53889;50.084;8.646;2023-05-16T05:53:39;13.30;99.90
54846;DHT22;53889;50.084;8.646;2023-05-16T05:56:06;14.00;99.90
54846;DHT22;53889;50.084;8.646;2023-05-16T05:58:34;13.40;99.90
54846;DHT22;53889;50.084;8.646;2023-05-16T06:01:01;13.30;99.90
54846;DHT22;53889;50.084;8.646;2023-05-16T06:03:28;13.10;99.90
54846;DHT22;53889;50.084;8.646;2023-05-16T06:05:55;13.20;99.90
54846;DHT22;53889;50.084;8.646;2023-05-16T06:08:21;13.20;99.90
54846;DHT22;53889;50.084;8.646;2023-05-16T06:10:48;13.20;99.90
54846;DHT22;53889;50.084;8.646;2023-05-16T06:13:15;13.20;99.90
54846;DHT22;53889;50.084;8.646;2023-05-16T06:15:43;14.10;99.90
54846;DHT22;53889;50.084;8.646;2023-05-16T06:18:10;13.40;99.90
54846;DHT22;53889;50.084;8.646;2023-05-16T06:20:37;13.40;99.90
54846;DHT22;53889;50.084;8.646;2023-05-16T06:23:03;13.40;99.90
54846;DHT22;53889;50.084;8.646;2023-05-16T06:25:30;13.50;99.90
54846;DHT22;53889;50.084;8.646;2023-05-16T06:27:57;13.40;99.90
54846;DHT22;53889;50.084;8.646;2023-05-16T06:30:24;13.50;99.90
54846;DHT22;53889;50.084;8.646;2023-05-16T06:32:52;13.50;99.90
54846;DHT22;53889;50.084;8.646;2023-05-16T06:35:19;13.50;99.90
54846;DHT22;53889;50.084;8.646;2023-05-16T06:37:46;13.50;99.90
54846;DHT22;53889;50.084;8.646;2023-05-16T06:40:13;13.30;99.90
54846;DHT22;53889;50.084;8.646;2023-05-16T06:42:39;13.50;99.90
54846;DHT22;53889;50.084;8.646;2023-05-16T06:45:08;14.20;99.90
54846;DHT22;53889;50.084;8.646;2023-05-16T06:47:35;13.70;99.90
54846;DHT22;53889;50.084;8.646;2023-05-16T06:50:04;13.50;99.90
54846;DHT22;53889;50.084;8.646;2023-05-16T06:52:31;12.90;99.90
54846;DHT22;53889;50.084;8.646;2023-05-16T06:54:58;12.80;99.90
54846;DHT22;53889;50.084;8.646;2023-05-16T06:57:24;12.00;99.90
54846;DHT22;53889;50.084;8.646;2023-05-16T06:59:51;14.40;99.90
54846;DHT22;53889;50.084;8.646;2023-05-16T07:02:18;13.00;99.90
54846;DHT22;53889;50.084;8.646;2023-05-16T07:04:45;15.50;99.90
54846;DHT22;53889;50.084;8.646;2023-05-16T07:07:14;13.00;99.90
54846;DHT22;53889;50.084;8.646;2023-05-16T07:09:41;14.30;99.90
54846;DHT22;53889;50.084;8.646;2023-05-16T07:12:08;13.00;99.90
54846;DHT22;53889;50.084;8.646;2023-05-16T07:14:35;13.90;99.90
54846;DHT22;53889;50.084;8.646;2023-05-16T07:17:02;16.10;99.90
54846;DHT22;53889;50.084;8.646;2023-05-16T07:19:29;12.90;99.90
54846;DHT22;53889;50.084;8.646;2023-05-16T07:21:56;12.80;99.90
54846;DHT22;53889;50.084;8.646;2023-05-16T07:24:24;12.20;99.90
54846;DHT22;53889;50.084;8.646;2023-05-16T07:26:51;13.00;99.90
54846;DHT22;53889;50.084;8.646;2023-05-16T07:29:17;15.90;99.90
54846;DHT22;53889;50.084;8.646;2023-05-16T07:31:44;13.20;99.90
54846;DHT22;53889;50.084;8.646;2023-05-16T07:34:11;12.60;99.90
54846;DHT22;53889;50.084;8.646;2023-05-16T07:36:38;10.50;99.90
54846;DHT22;53889;50.084;8.646;2023-05-16T07:39:05;13.80;99.90
54846;DHT22;53889;50.084;8.646;2023-05-16T07:41:34;12.90;99.90
54846;DHT22;53889;50.084;8.646;2023-05-16T07:44:00;12.70;99.90
54846;DHT22;53889;50.084;8.646;2023-05-16T07:46:28;14.70;99.90
54846;DHT22;53889;50.084;8.646;2023-05-16T07:48:55;10.90;99.90
54846;DHT22;53889;50.084;8.646;2023-05-16T07:51:23;14.00;99.90
54846;DHT22;53889;50.084;8.646;2023-05-16T07:53:51;12.80;99.90
54846;DHT22;53889;50.084;8.646;2023-05-16T07:56:18;12.90;99.90
54846;DHT22;53889;50.084;8.646;2023-05-16T07:58:47;15.50;99.90
54846;DHT22;53889;50.084;8.646;2023-05-16T08:01:15;12.70;99.90
54846;DHT22;53889;50.084;8.646;2023-05-16T08:03:42;12.60;99.90
54846;DHT22;53889;50.084;8.646;2023-05-16T08:06:09;12.60;99.90
54846;DHT22;53889;50.084;8.646;2023-05-16T08:08:35;12.40;99.90
54846;DHT22;53889;50.084;8.646;2023-05-16T08:11:03;12.40;99.90
54846;DHT22;53889;50.084;8.646;2023-05-16T08:13:30;12.40;99.90
54846;DHT22;53889;50.084;8.646;2023-05-16T08:15:58;12.30;99.90
54846;DHT22;53889;50.084;8.646;2023-05-16T08:18:25;12.90;99.90
54846;DHT22;53889;50.084;8.646;2023-05-16T08:20:52;13.50;99.90
54846;DHT22;53889;50.084;8.646;2023-05-16T08:23:19;12.20;99.90
54846;DHT22;53889;50.084;8.646;2023-05-16T08:25:45;12.10;99.90
54846;DHT22;53889;50.084;8.646;2023-05-16T08:28:12;13.30;99.90
54846;DHT22;53889;50.084;8.646;2023-05-16T08:30:39;12.30;99.90
54846;DHT22;53889;50.084;8.646;2023-05-16T08:33:08;12.30;99.90
54846;DHT22;53889;50.084;8.646;2023-05-16T08:35:34;13.10;99.90
54846;DHT22;53889;50.084;8.646;2023-05-16T08:38:01;12.20;99.90
54846;DHT22;53889;50.084;8.646;2023-05-16T08:40:28;13.40;99.90
54846;DHT22;53889;50.084;8.646;2023-05-16T08:42:56;12.20;99.90
54846;DHT22;53889;50.084;8.646;2023-05-16T08:45:23;12.20;99.90
54846;DHT22;53889;50.084;8.646;2023-05-16T08:47:54;12.10;99.90
54846;DHT22;53889;50.084;8.646;2023-05-16T08:50:23;12.10;99.90
54846;DHT22;53889;50.084;8.646;2023-05-16T08:52:51;11.90;99.90
54846;DHT22;53889;50.084;8.646;2023-05-16T08:55:19;11.90;99.90
54846;DHT22;53889;50.084;8.646;2023-05-16T08:57:47;11.90;99.90
54846;DHT22;53889;50.084;8.646;2023-05-16T09:00:15;11.90;99.90
54846;DHT22;53889;50.084;8.646;2023-05-16T09:02:44;11.90;99.90
54846;DHT22;53889;50.084;8.646;2023-05-16T09:05:13;12.10;99.90
54846;DHT22;53889;50.084;8.646;2023-05-16T09:07:42;12.20;99.90
54846;DHT22;53889;50.084;8.646;2023-05-16T09:10:09;14.10;99.90
54846;DHT22;53889;50.084;8.646;2023-05-16T09:12:38;12.30;99.90
54846;DHT22;53889;50.084;8.646;2023-05-16T09:15:07;12.50;99.90
54846;DHT22;53889;50.084;8.646;2023-05-16T09:17:35;12.40;99.90
54846;DHT22;53889;50.084;8.646;2023-05-16T09:20:11;12.50;99.90
54846;DHT22;53889;50.084;8.646;2023-05-16T09:22:38;12.50;99.90
54846;DHT22;53889;50.084;8.646;2023-05-16T09:25:07;12.60;99.90
54846;DHT22;53889;50.084;8.646;2023-05-16T09:27:34;12.60;99.90
54846;DHT22;53889;50.084;8.646;2023-05-16T09:30:01;12.80;99.90
54846;DHT22;53889;50.084;8.646;2023-05-16T09:32:30;13.00;99.90
54846;DHT22;53889;50.084;8.646;2023-05-16T09:34:57;13.10;99.90
54846;DHT22;53889;50.084;8.646;2023-05-16T09:37:24;13.30;99.90
54846;DHT22;53889;50.084;8.646;2023-05-16T09:39:52;13.30;99.90
54846;DHT22;53889;50.084;8.646;2023-05-16T09:42:21;13.20;99.90
54846;DHT22;53889;50.084;8.646;2023-05-16T09:44:49;13.40;99.90
54846;DHT22;53889;50.084;8.646;2023-05-16T09:47:17;13.40;99.90
54846;DHT22;53889;50.084;8.646;2023-05-16T09:49:45;14.10;99.90
54846;DHT22;53889;50.084;8.646;2023-05-16T09:52:14;13.50;99.90
54846;DHT22;53889;50.084;8.646;2023-05-16T09:54:41;13.40;99.90
54846;DHT22;53889;50.084;8.646;2023-05-16T09:57:09;13.60;99.90
54846;DHT22;53889;50.084;8.646;2023-05-16T09:59:38;13.70;99.90
54846;DHT22;53889;50.084;8.646;2023-05-16T10:02:10;13.80;99.90
54846;DHT22;53889;50.084;8.646;2023-05-16T10:04:38;13.80;99.90
54846;DHT22;53889;50.084;8.646;2023-05-16T10:07:07;13.70;99.90
54846;DHT22;53889;50.084;8.646;2023-05-16T10:09:54;13.80;99.90
54846;DHT22;53889;50.084;8.646;2023-05-16T10:12:38;12.10;99.90
54846;DHT22;53889;50.084;8.646;2023-05-16T10:15:07;13.60;99.90
54846;DHT22;53889;50.084;8.646;2023-05-16T10:17:39;13.80;99.90
54846;DHT22;53889;50.084;8.646;2023-05-16T10:20:07;13.60;99.90
54846;DHT22;53889;50.084;8.646;2023-05-16T10:22:36;13.60;99.90
54846;DHT22;53889;50.084;8.646;2023-05-16T10:25:08;13.60;99.90
54846;DHT22;53889;50.084;8.646;2023-05-16T10:27:38;13.40;99.90
54846;DHT22;53889;50.084;8.646;2023-05-16T10:30:09;13.20;99.90
54846;DHT22;53889;50.084;8.646;2023-05-16T10:32:36;13.00;99.90
54846;DHT22;53889;50.084;8.646;2023-05-16T10:35:03;13.00;99.90
54846;DHT22;53889;50.084;8.646;2023-05-16T10:37:31;13.00;99.90
54846;DHT22;53889;50.084;8.646;2023-05-16T10:39:58;13.30;99.90
54846;DHT22;53889;50.084;8.646;2023-05-16T10:42:26;13.40;99.90
54846;DHT22;53889;50.084;8.646;2023-05-16T10:44:53;13.60;99.90
54846;DHT22;53889;50.084;8.646;2023-05-16T10:47:22;13.80;99.90
54846;DHT22;53889;50.084;8.646;2023-05-16T10:49:49;14.10;99.90
54846;DHT22;53889;50.084;8.646;2023-05-16T10:52:16;14.20;99.30
54846;DHT22;53889;50.084;8.646;2023-05-16T10:54:49;14.20;98.80
54846;DHT22;53889;50.084;8.646;2023-05-16T10:57:17;14.20;98.90
54846;DHT22;53889;50.084;8.646;2023-05-16T10:59:47;14.10;99.00
54846;DHT22;53889;50.084;8.646;2023-05-16T11:02:23;14.10;99.10
54846;DHT22;53889;50.084;8.646;2023-05-16T11:04:51;14.20;98.60
54846;DHT22;53889;50.084;8.646;2023-05-16T11:07:19;14.30;98.50
54846;DHT22;53889;50.084;8.646;2023-05-16T11:10:01;14.50;98.00
54846;DHT22;53889;50.084;8.646;2023-05-16T11:12:36;14.50;97.80
54846;DHT22;53889;50.084;8.646;2023-05-16T11:15:17;14.50;97.80
54846;DHT22;53889;50.084;8.646;2023-05-16T11:17:46;14.50;97.60
54846;DHT22;53889;50.084;8.646;2023-05-16T11:20:24;14.50;97.20
54846;DHT22;53889;50.084;8.646;2023-05-16T11:23:20;14.60;96.80
54846;DHT22;53889;50.084;8.646;2023-05-16T11:25:48;14.60;96.50
54846;DHT22;53889;50.084;8.646;2023-05-16T11:28:17;14.70;95.00
54846;DHT22;53889;50.084;8.646;2023-05-16T11:30:46;14.50;95.30
54846;DHT22;53889;50.084;8.646;2023-05-16T11:33:13;14.70;95.00
54846;DHT22;53889;50.084;8.646;2023-05-16T11:35:40;14.70;94.60
54846;DHT22;53889;50.084;8.646;2023-05-16T11:38:11;14.80;94.10
54846;DHT22;53889;50.084;8.646;2023-05-16T11:40:45;14.70;93.70
54846;DHT22;53889;50.084;8.646;2023-05-16T11:43:17;14.50;94.00
54846;DHT22;53889;50.084;8.646;2023-05-16T11:45:44;14.40;94.00
54846;DHT22;53889;50.084;8.646;2023-05-16T11:48:12;14.50;94.30
54846;DHT22;53889;50.084;8.646;2023-05-16T11:50:40;14.70;94.10
54846;DHT22;53889;50.084;8.646;2023-05-16T11:53:09;14.90;94.00
54846;DHT22;53889;50.084;8.646;2023-05-16T11:55:36;15.20;93.80
54846;DHT22;53889;50.084;8.646;2023-05-16T11:58:04;15.30;93.20
54846;DHT22;53889;50.084;8.646;2023-05-16T12:00:32;16.70;93.40
54846;DHT22;53889;50.084;8.646;2023-05-16T12:03:01;15.50;92.20
54846;DHT22;53889;50.084;8.646;2023-05-16T12:05:28;16.20;92.20
54846;DHT22;53889;50.084;8.646;2023-05-16T12:07:56;16.90;91.50
54846;DHT22;53889;50.084;8.646;2023-05-16T12:10:24;17.40;90.40
54846;DHT22;53889;50.084;8.646;2023-05-16T12:12:51;17.70;89.70
54846;DHT22;53889;50.084;8.646;2023-05-16T12:15:20;17.90;89.30
54846;DHT22;53889;50.084;8.646;2023-05-16T12:17:48;18.60;87.50
54846;DHT22;53889;50.084;8.646;2023-05-16T12:20:15;18.90;85.70
54846;DHT22;53889;50.084;8.646;2023-05-16T12:22:44;18.70;85.10
54846;DHT22;53889;50.084;8.646;2023-05-16T12:25:20;18.80;85.00
54846;DHT22;53889;50.084;8.646;2023-05-16T12:27:47;19.40;85.00
54846;DHT22;53889;50.084;8.646;2023-05-16T12:30:15;20.20;81.90
54846;DHT22;53889;50.084;8.646;2023-05-16T12:32:43;20.10;76.00
54846;DHT22;53889;50.084;8.646;2023-05-16T12:35:10;20.20;75.20
54846;DHT22;53889;50.084;8.646;2023-05-16T12:37:37;20.40;73.10
54846;DHT22;53889;50.084;8.646;2023-05-16T12:40:05;20.90;70.50
54846;DHT22;53889;50.084;8.646;2023-05-16T12:42:37;20.90;69.20
54846;DHT22;53889;50.084;8.646;2023-05-16T12:45:04;21.40;67.50
54846;DHT22;53889;50.084;8.646;2023-05-16T12:47:34;21.80;67.20
54846;DHT22;53889;50.084;8.646;2023-05-16T12:50:08;21.70;64.20
54846;DHT22;53889;50.084;8.646;2023-05-16T12:52:36;21.00;64.50
54846;DHT22;53889;50.084;8.646;2023-05-16T12:55:04;19.90;66.20
54846;DHT22;53889;50.084;8.646;2023-05-16T12:57:31;19.10;67.10
54846;DHT22;53889;50.084;8.646;2023-05-16T12:59:59;19.00;68.10
54846;DHT22;53889;50.084;8.646;2023-05-16T13:02:26;18.50;69.40
54846;DHT22;53889;50.084;8.646;2023-05-16T13:04:53;18.80;68.70
54846;DHT22;53889;50.084;8.646;2023-05-16T13:07:21;19.20;68.50
54846;DHT22;53889;50.084;8.646;2023-05-16T13:09:48;19.30;67.60
54846;DHT22;53889;50.084;8.646;2023-05-16T13:12:15;20.20;66.90
54846;DHT22;53889;50.084;8.646;2023-05-16T13:14:41;18.90;66.30
54846;DHT22;53889;50.084;8.646;2023-05-16T13:17:09;18.50;67.30
54846;DHT22;53889;50.084;8.646;2023-05-16T13:19:37;17.90;67.80
54846;DHT22;53889;50.084;8.646;2023-05-16T13:22:03;19.30;69.40
54846;DHT22;53889;50.084;8.646;2023-05-16T13:24:31;17.50;68.40
54846;DHT22;53889;50.084;8.646;2023-05-16T13:26:58;17.60;67.80
54846;DHT22;53889;50.084;8.646;2023-05-16T13:29:25;17.60;69.30
54846;DHT22;53889;50.084;8.646;2023-05-16T13:31:52;17.70;69.30
54846;DHT22;53889;50.084;8.646;2023-05-16T13:34:19;17.80;69.70
54846;DHT22;53889;50.084;8.646;2023-05-16T13:36:46;17.60;68.10
54846;DHT22;53889;50.084;8.646;2023-05-16T13:39:14;17.60;69.60
54846;DHT22;53889;50.084;8.646;2023-05-16T13:41:42;17.70;68.90
54846;DHT22;53889;50.084;8.646;2023-05-16T13:44:09;17.40;67.40
54846;DHT22;53889;50.084;8.646;2023-05-16T13:49:04;17.20;67.10
54846;DHT22;53889;50.084;8.646;2023-05-16T13:51:31;19.50;69.60
54846;DHT22;53889;50.084;8.646;2023-05-16T13:53:58;17.20;68.00
54846;DHT22;53889;50.084;8.646;2023-05-16T13:56:26;17.30;66.70
54846;DHT22;53889;50.084;8.646;2023-05-16T13:58:54;17.60;68.00
54846;DHT22;53889;50.084;8.646;2023-05-16T14:01:22;18.50;68.00
54846;DHT22;53889;50.084;8.646;2023-05-16T14:03:49;17.90;66.60
54846;DHT22;53889;50.084;8.646;2023-05-16T14:06:16;18.00;67.00
54846;DHT22;53889;50.084;8.646;2023-05-16T14:08:43;18.00;67.10
54846;DHT22;53889;50.084;8.646;2023-05-16T14:11:11;17.60;66.50
54846;DHT22;53889;50.084;8.646;2023-05-16T14:13:37;17.50;67.30
54846;DHT22;53889;50.084;8.646;2023-05-16T14:16:07;17.50;68.40
54846;DHT22;53889;50.084;8.646;2023-05-16T14:18:34;17.30;68.20
54846;DHT22;53889;50.084;8.646;2023-05-16T14:21:01;17.20;68.70
54846;DHT22;53889;50.084;8.646;2023-05-16T14:23:28;17.10;67.70
54846;DHT22;53889;50.084;8.646;2023-05-16T14:25:55;17.10;67.10
54846;DHT22;53889;50.084;8.646;2023-05-16T14:28:22;17.20;66.10
54846;DHT22;53889;50.084;8.646;2023-05-16T14:30:49;17.20;65.40
54846;DHT22;53889;50.084;8.646;2023-05-16T14:33:18;19.00;66.60
54846;DHT22;53889;50.084;8.646;2023-05-16T14:35:45;17.20;66.00
54846;DHT22;53889;50.084;8.646;2023-05-16T14:38:14;17.00;66.60
54846;DHT22;53889;50.084;8.646;2023-05-16T14:40:41;20.20;68.40
54846;DHT22;53889;50.084;8.646;2023-05-16T14:43:08;17.20;66.70
54846;DHT22;53889;50.084;8.646;2023-05-16T14:45:37;19.90;66.20
54846;DHT22;53889;50.084;8.646;2023-05-16T14:48:05;18.30;63.90
54846;DHT22;53889;50.084;8.646;2023-05-16T14:50:34;17.80;65.30
54846;DHT22;53889;50.084;8.646;2023-05-16T14:53:01;17.60;65.20
54846;DHT22;53889;50.084;8.646;2023-05-16T14:55:28;17.70;65.80
54846;DHT22;53889;50.084;8.646;2023-05-16T14:57:55;17.80;63.80
54846;DHT22;53889;50.084;8.646;2023-05-16T15:00:23;17.50;64.20
54846;DHT22;53889;50.084;8.646;2023-05-16T15:02:52;17.20;65.20
54846;DHT22;53889;50.084;8.646;2023-05-16T15:05:19;17.10;64.70
54846;DHT22;53889;50.084;8.646;2023-05-16T15:07:59;17.00;65.80
54846;DHT22;53889;50.084;8.646;2023-05-16T15:10:26;16.90;66.40
54846;DHT22;53889;50.084;8.646;2023-05-16T15:12:54;16.80;66.40
54846;DHT22;53889;50.084;8.646;2023-05-16T15:15:21;16.80;66.90
54846;DHT22;53889;50.084;8.646;2023-05-16T15:17:48;16.80;65.40
54846;DHT22;53889;50.084;8.646;2023-05-16T15:20:15;17.70;66.70
54846;DHT22;53889;50.084;8.646;2023-05-16T15:22:42;16.90;66.50
54846;DHT22;53889;50.084;8.646;2023-05-16T15:25:45;19.80;67.90
54846;DHT22;53889;50.084;8.646;2023-05-16T15:28:12;16.70;66.20
54846;DHT22;53889;50.084;8.646;2023-05-16T15:30:39;16.70;65.70
54846;DHT22;53889;50.084;8.646;2023-05-16T15:33:07;17.80;65.70
54846;DHT22;53889;50.084;8.646;2023-05-16T15:35:36;16.50;64.90
54846;DHT22;53889;50.084;8.646;2023-05-16T15:38:07;17.10;66.70